We try to provide you some weather data from local stations. This data is not for flight planning purposes!

Weather at LROD – Oradea airport (8,5NM / 16km SW of our airfield)

Metar

Metar

LROD 010730Z 20005KT 4500 BR SCT003 OVC005 12/11 Q1014 R01/19//95

TAF

TAF LROD 312030Z 3121/0203 CNL

Temperature

12

QNH

1014

Weather forcasts

Topweather forecast for Ineu, Bihor

Forcast from wetterzentrale.de

Wind animation

Ventusky

Sattelite images

Meteo Romania – Precipitation / Radar image

Meteo Romania – Cloud coverage

Sat 24 – Precipitation / Radar image

Sat 24 – Cloud coverage

Soaring forecast

RASP Forecast by Dragos

fcst24